Terminal Aerodrome Forecast
Issued by NWS Amarillo, TX

Home | Current Version | Previous Version | Text Only | Print | Product List | Glossary On
Versions: 1 2 3 4 5 6 7 8 9 10 11 12 13 14 15
000
FTUS44 KAMA 230520
TAFGUY
TAF
KGUY 230520Z 2306/2406 23008KT P6SM BKN300
     FM231600 24030G40KT P6SM FEW300
     FM240300 30015G25KT P6SM SKC=

USA.gov is the U.S. government's official web portal to all federal, state and local government web resources and services.